Clyde, North Dakota
Current Conditions -  °F | °C
As of 12:15 AM on Thursday 29 Jan 2015 (Local Time) from K9D7 Reporting Station
Overcast Overcast  
Wind Chill: 10°   Ceiling: 3700
Heat Index: 23°   Visibility: 10mi
Dew Point: 19°   Wind: 16mph
Humidity: 86%   Direction: 330°NNW
Pressure: 30.19"   Gusts: NA
Location:  48.6309°N, 98.8489°W
Report Text: K9D7 290615Z AUTO 33014KT 10SM SCT029 OVC037 M05/M07 A3019 RMK AO2
Loading
Personal Weather Stations






























Interactive Weather Map New forecast layout! Learn more

10-Day Weather Forecast

Advertisements
Track Severe Weather on mobile